createdAt,value
2018-03-07T00:00:16.166Z,17.9
2018-03-07T00:01:05.674Z,17.9
2018-03-07T00:01:56.318Z,17.9
2018-03-07T00:02:46.317Z,17.8
2018-03-07T00:03:36.387Z,17.8
2018-03-07T00:04:26.276Z,17.9
2018-03-07T00:05:15.369Z,17.8
2018-03-07T00:06:06.348Z,17.8
2018-03-07T00:06:56.056Z,17.8
2018-03-07T00:07:46.175Z,17.8
2018-03-07T00:08:36.455Z,17.9
2018-03-07T00:09:26.006Z,17.8
2018-03-07T00:10:16.873Z,17.8
2018-03-07T00:11:06.671Z,17.8
2018-03-07T00:11:56.668Z,17.8
2018-03-07T00:12:46.756Z,17.8
2018-03-07T00:13:36.248Z,17.8
2018-03-07T00:14:27.194Z,17.8
2018-03-07T00:15:16.358Z,17.8
2018-03-07T00:16:07.255Z,17.8
2018-03-07T00:16:57.049Z,17.8
2018-03-07T00:17:47.089Z,17.9
2018-03-07T00:18:36.608Z,17.8
2018-03-07T00:19:26.645Z,17.8
2018-03-07T00:20:16.771Z,17.8
2018-03-07T00:21:07.323Z,17.8
2018-03-07T00:21:57.205Z,17.8
2018-03-07T00:22:47.709Z,17.8
2018-03-07T00:23:37.629Z,17.8
2018-03-07T00:24:27.278Z,17.8
2018-03-07T00:25:17.897Z,17.8
2018-03-07T00:26:07.937Z,17.8
2018-03-07T00:26:57.998Z,17.8
2018-03-07T00:27:47.507Z,17.8
2018-03-07T00:28:37.820Z,17.8
2018-03-07T00:29:28.170Z,17.8
2018-03-07T00:30:17.660Z,17.8
2018-03-07T00:31:08.262Z,17.8
2018-03-07T00:31:58.344Z,17.8
2018-03-07T00:32:47.845Z,17.8
2018-03-07T00:33:38.484Z,17.8
2018-03-07T00:34:27.433Z,17.8
2018-03-07T00:35:18.574Z,17.8
2018-03-07T00:36:08.329Z,17.8
2018-03-07T00:36:58.404Z,17.8
2018-03-07T00:37:48.706Z,17.8
2018-03-07T00:38:38.786Z,17.8
2018-03-07T00:39:28.420Z,17.8
2018-03-07T00:40:18.887Z,17.8
2018-03-07T00:41:07.945Z,17.8
2018-03-07T00:41:58.497Z,17.8
2018-03-07T00:42:48.581Z,17.8
2018-03-07T00:43:37.344Z,17.8
2018-03-07T00:44:27.509Z,17.8
2018-03-07T00:45:17.776Z,17.8
2018-03-07T00:46:07.508Z,17.8
2018-03-07T00:46:57.973Z,17.8
2018-03-07T00:47:48.392Z,17.8
2018-03-07T00:48:37.685Z,17.8
2018-03-07T00:49:28.056Z,17.8
2018-03-07T00:50:17.102Z,17.8
2018-03-07T00:51:07.779Z,17.8
2018-03-07T00:51:57.939Z,17.8
2018-03-07T00:52:48.775Z,17.8
2018-03-07T00:53:37.842Z,17.8
2018-03-07T00:54:28.484Z,17.8
2018-03-07T00:55:18.925Z,17.8
2018-03-07T00:56:08.964Z,17.8
2018-03-07T00:56:59.582Z,17.8
2018-03-07T00:57:49.102Z,17.8
2018-03-07T00:58:39.167Z,17.8
2018-03-07T00:59:29.456Z,17.8
2018-03-07T01:00:19.521Z,17.8
2018-03-07T01:01:09.856Z,17.8
2018-03-07T01:01:59.392Z,17.8
2018-03-07T01:02:49.717Z,17.8
2018-03-07T01:03:39.738Z,17.8
2018-03-07T01:04:30.123Z,17.8
2018-03-07T01:05:19.885Z,17.8
2018-03-07T01:06:10.218Z,17.8
2018-03-07T01:07:00.562Z,17.8
2018-03-07T01:07:49.740Z,17.8
2018-03-07T01:08:40.100Z,17.8
2018-03-07T01:09:30.360Z,17.8
2018-03-07T01:10:19.949Z,17.8
2018-03-07T01:11:10.265Z,17.8
2018-03-07T01:12:00.620Z,17.8
2018-03-07T01:12:50.584Z,17.8
2018-03-07T01:13:41.023Z,17.8
2018-03-07T01:14:30.753Z,17.8
2018-03-07T01:15:20.856Z,17.8
2018-03-07T01:16:10.792Z,17.8
2018-03-07T01:17:01.162Z,17.8
2018-03-07T01:17:50.449Z,17.8
2018-03-07T01:18:41.035Z,17.8
2018-03-07T01:19:31.422Z,17.8
2018-03-07T01:20:21.664Z,17.8
2018-03-07T01:21:11.456Z,17.8
2018-03-07T01:22:01.509Z,17.8
2018-03-07T01:22:51.267Z,17.8
2018-03-07T01:23:41.620Z,17.8
2018-03-07T01:24:31.731Z,17.8
2018-03-07T01:25:21.759Z,17.8
2018-03-07T01:26:11.534Z,17.8
2018-03-07T01:27:02.167Z,17.8
2018-03-07T01:27:50.742Z,17.8
2018-03-07T01:28:41.653Z,17.8
2018-03-07T01:29:31.454Z,17.8
2018-03-07T01:30:22.099Z,17.8
2018-03-07T01:31:11.361Z,17.8
2018-03-07T01:32:01.962Z,17.8
2018-03-07T01:32:51.459Z,17.8
2018-03-07T01:33:41.795Z,17.8
2018-03-07T01:34:31.901Z,17.8
2018-03-07T01:35:21.702Z,17.8
2018-03-07T01:36:11.993Z,17.8
2018-03-07T01:37:02.251Z,17.8
2018-03-07T01:37:52.911Z,17.8
2018-03-07T01:38:42.946Z,17.8
2018-03-07T01:39:32.733Z,17.8
2018-03-07T01:40:22.755Z,17.8
2018-03-07T01:41:12.528Z,17.8
2018-03-07T01:42:02.878Z,17.8
2018-03-07T01:42:52.649Z,17.8
2018-03-07T01:43:42.430Z,17.8
2018-03-07T01:44:33.047Z,17.8
2018-03-07T01:45:22.834Z,17.8
2018-03-07T01:46:13.466Z,17.8
2018-03-07T01:47:03.019Z,17.8
2018-03-07T01:47:53.035Z,17.8
2018-03-07T01:48:43.616Z,17.8
2018-03-07T01:49:33.130Z,17.8
2018-03-07T01:50:23.750Z,17.8
2018-03-07T01:51:13.249Z,17.8
2018-03-07T01:52:03.834Z,17.8
2018-03-07T01:52:53.024Z,17.8
2018-03-07T01:53:43.397Z,17.8
2018-03-07T01:54:33.725Z,17.8
2018-03-07T01:55:24.073Z,17.8
2018-03-07T01:56:13.568Z,17.8
2018-03-07T01:57:03.630Z,17.8
2018-03-07T01:57:54.257Z,17.8
2018-03-07T01:58:44.295Z,17.8
2018-03-07T01:59:33.814Z,17.8
2018-03-07T02:00:23.879Z,17.8
2018-03-07T02:01:14.483Z,17.8
2018-03-07T02:02:03.955Z,17.8
2018-03-07T02:02:54.332Z,17.8
2018-03-07T02:03:44.401Z,17.8
2018-03-07T02:04:33.857Z,17.8
2018-03-07T02:05:23.890Z,17.8
2018-03-07T02:06:14.287Z,17.8
2018-03-07T02:07:03.449Z,17.8
2018-03-07T02:07:53.817Z,17.8
2018-03-07T02:08:44.179Z,17.8
2018-03-07T02:09:34.795Z,17.8
2018-03-07T02:10:24.862Z,17.8
2018-03-07T02:11:14.893Z,17.8
2018-03-07T02:12:04.946Z,17.8
2018-03-07T02:12:53.686Z,17.8
2018-03-07T02:13:44.592Z,17.8
2018-03-07T02:14:34.476Z,17.8
2018-03-07T02:15:24.179Z,17.8
2018-03-07T02:16:14.235Z,17.8
2018-03-07T02:17:04.344Z,17.8
2018-03-07T02:17:54.121Z,17.8
2018-03-07T02:18:44.849Z,17.8
2018-03-07T02:19:34.416Z,17.8
2018-03-07T02:20:24.180Z,17.8
2018-03-07T02:21:14.018Z,17.8
2018-03-07T02:22:04.899Z,17.8
2018-03-07T02:22:54.208Z,17.8
2018-03-07T02:23:43.605Z,17.8
2018-03-07T02:24:34.200Z,17.8
2018-03-07T02:25:24.895Z,17.8
2018-03-07T02:26:14.282Z,17.8
2018-03-07T02:27:04.751Z,17.8
2018-03-07T02:27:55.328Z,17.8
2018-03-07T02:28:44.658Z,17.8
2018-03-07T02:29:35.594Z,17.8
2018-03-07T02:30:24.975Z,17.8
2018-03-07T02:31:16.024Z,17.8
2018-03-07T02:32:05.603Z,17.8
2018-03-07T02:32:55.862Z,17.8
2018-03-07T02:33:45.612Z,17.8
2018-03-07T02:34:35.186Z,17.8
2018-03-07T02:35:26.285Z,17.8
2018-03-07T02:36:15.386Z,17.8
2018-03-07T02:37:06.496Z,17.8
2018-03-07T02:37:55.127Z,17.8
2018-03-07T02:38:45.846Z,17.8
2018-03-07T02:39:36.192Z,17.8
2018-03-07T02:40:25.871Z,17.8
2018-03-07T02:41:15.919Z,17.8
2018-03-07T02:42:05.420Z,17.8
2018-03-07T02:42:55.552Z,17.8
2018-03-07T02:43:47.260Z,17.8
2018-03-07T02:44:35.657Z,17.8
2018-03-07T02:45:27.024Z,17.8
2018-03-07T02:46:16.514Z,17.8
2018-03-07T02:47:06.855Z,17.8
2018-03-07T02:47:57.178Z,17.8
2018-03-07T02:48:47.508Z,17.8
2018-03-07T02:49:37.315Z,17.8
2018-03-07T02:50:27.604Z,17.8
2018-03-07T02:51:17.362Z,17.8
2018-03-07T02:52:08.032Z,17.8
2018-03-07T02:52:57.512Z,17.8
2018-03-07T02:53:47.559Z,17.8
2018-03-07T02:54:37.899Z,17.8
2018-03-07T02:55:27.737Z,17.8
2018-03-07T02:56:18.019Z,17.8
2018-03-07T02:57:07.753Z,17.8
2018-03-07T02:57:57.613Z,17.8
2018-03-07T02:58:47.874Z,17.8
2018-03-07T02:59:37.923Z,17.8
2018-03-07T03:00:28.294Z,17.8
2018-03-07T03:01:18.357Z,17.8
2018-03-07T03:02:08.406Z,17.8
2018-03-07T03:02:57.919Z,17.8
2018-03-07T03:03:48.273Z,17.8
2018-03-07T03:04:38.851Z,17.8
2018-03-07T03:05:28.670Z,17.8
2018-03-07T03:06:18.129Z,17.8
2018-03-07T03:07:08.181Z,17.8
2018-03-07T03:07:58.518Z,17.8
2018-03-07T03:08:48.598Z,17.8
2018-03-07T03:09:39.141Z,17.8
2018-03-07T03:10:28.969Z,17.8
2018-03-07T03:11:18.998Z,17.8
2018-03-07T03:12:09.063Z,17.8
2018-03-07T03:12:59.121Z,17.8
2018-03-07T03:13:48.627Z,17.8
2018-03-07T03:14:39.238Z,17.8
2018-03-07T03:15:29.290Z,17.8
2018-03-07T03:16:19.665Z,17.8
2018-03-07T03:17:09.679Z,17.8
2018-03-07T03:17:58.924Z,17.8
2018-03-07T03:18:49.562Z,17.8
2018-03-07T03:19:39.847Z,17.8
2018-03-07T03:20:29.624Z,17.8
2018-03-07T03:21:19.949Z,17.8
2018-03-07T03:22:10.027Z,17.8
2018-03-07T03:22:59.811Z,17.8
2018-03-07T03:23:49.882Z,17.8
2018-03-07T03:24:39.949Z,17.8
2018-03-07T03:25:30.059Z,17.8
2018-03-07T03:26:19.480Z,17.8
2018-03-07T03:27:10.634Z,17.8
2018-03-07T03:27:59.850Z,17.8
2018-03-07T03:28:50.248Z,17.8
2018-03-07T03:29:40.282Z,17.8
2018-03-07T03:30:29.513Z,17.8
2018-03-07T03:31:19.897Z,17.8
2018-03-07T03:32:10.195Z,17.8
2018-03-07T03:33:00.553Z,17.8
2018-03-07T03:33:50.264Z,17.8
2018-03-07T03:34:40.618Z,17.8
2018-03-07T03:35:30.694Z,17.8
2018-03-07T03:36:19.612Z,17.8
2018-03-07T03:37:09.667Z,17.8
2018-03-07T03:38:00.324Z,17.8
2018-03-07T03:38:50.377Z,17.8
2018-03-07T03:39:40.166Z,17.8
2018-03-07T03:40:30.767Z,17.8
2018-03-07T03:41:19.834Z,17.8
2018-03-07T03:42:10.199Z,17.8
2018-03-07T03:43:01.201Z,17.8
2018-03-07T03:43:51.260Z,17.8
2018-03-07T03:44:41.565Z,17.7
2018-03-07T03:45:31.149Z,17.8
2018-03-07T03:46:21.135Z,17.8
2018-03-07T03:47:11.201Z,17.8
2018-03-07T03:48:01.857Z,17.8
2018-03-07T03:48:51.340Z,17.8
2018-03-07T03:49:40.906Z,17.8
2018-03-07T03:50:31.440Z,17.8
2018-03-07T03:51:22.019Z,17.8
2018-03-07T03:52:11.263Z,17.8
2018-03-07T03:53:02.171Z,17.8
2018-03-07T03:53:51.939Z,17.8
2018-03-07T03:54:42.210Z,17.9
2018-03-07T03:55:31.758Z,17.9
2018-03-07T03:56:21.820Z,17.9
2018-03-07T03:57:11.868Z,18
2018-03-07T03:58:02.220Z,17.9
2018-03-07T03:58:52.254Z,18
2018-03-07T03:59:42.288Z,18
2018-03-07T04:00:32.097Z,18
2018-03-07T04:01:22.222Z,18.1
2018-03-07T04:02:11.925Z,18.1
2018-03-07T04:03:01.795Z,18.1
2018-03-07T04:03:52.668Z,18.1
2018-03-07T04:04:42.375Z,18.1
2018-03-07T04:05:32.485Z,18.1
2018-03-07T04:06:23.086Z,18.2
2018-03-07T04:07:12.560Z,18.2
2018-03-07T04:08:02.042Z,18.1
2018-03-07T04:08:52.724Z,18.1
2018-03-07T04:09:43.267Z,18.1
2018-03-07T04:10:33.104Z,18.1
2018-03-07T04:11:23.413Z,18.1
2018-03-07T04:12:13.447Z,18.1
2018-03-07T04:13:02.965Z,18.1
2018-03-07T04:13:52.745Z,18.1
2018-03-07T04:14:43.647Z,18.1
2018-03-07T04:15:32.556Z,18.1
2018-03-07T04:16:23.253Z,18.1
2018-03-07T04:17:13.283Z,18.1
2018-03-07T04:18:03.570Z,18.1
2018-03-07T04:18:53.350Z,18.1
2018-03-07T04:19:43.686Z,18.1
2018-03-07T04:20:33.467Z,18.1
2018-03-07T04:21:23.814Z,18.1
2018-03-07T04:22:13.587Z,18.1
2018-03-07T04:23:03.922Z,18.1
2018-03-07T04:23:53.712Z,18.1
2018-03-07T04:24:43.784Z,18.1
2018-03-07T04:25:34.319Z,18.1
2018-03-07T04:26:23.874Z,18.1
2018-03-07T04:27:14.223Z,18.1
2018-03-07T04:28:04.034Z,18.1
2018-03-07T04:28:53.815Z,18.1
2018-03-07T04:29:44.391Z,18.1
2018-03-07T04:30:34.429Z,18.1
2018-03-07T04:31:24.736Z,18.1
2018-03-07T04:32:14.811Z,18.1
2018-03-07T04:33:04.610Z,18.1
2018-03-07T04:33:54.095Z,18.1
2018-03-07T04:34:44.198Z,18.1
2018-03-07T04:35:34.211Z,18
2018-03-07T04:36:23.703Z,18
2018-03-07T04:37:15.172Z,18.1
2018-03-07T04:38:04.673Z,18
2018-03-07T04:38:54.755Z,18
2018-03-07T04:39:44.811Z,18.1
2018-03-07T04:40:34.373Z,18
2018-03-07T04:41:25.168Z,18
2018-03-07T04:42:15.518Z,18
2018-03-07T04:43:05.038Z,18
2018-03-07T04:43:55.615Z,18
2018-03-07T04:44:45.420Z,18
2018-03-07T04:45:35.007Z,18
2018-03-07T04:46:25.529Z,18
2018-03-07T04:47:15.579Z,18
2018-03-07T04:48:05.708Z,18
2018-03-07T04:48:55.447Z,18
2018-03-07T04:49:45.727Z,18
2018-03-07T04:50:35.820Z,18
2018-03-07T04:51:26.188Z,17.9
2018-03-07T04:52:14.541Z,17.9
2018-03-07T04:53:04.715Z,17.9
2018-03-07T04:53:55.517Z,17.9
2018-03-07T04:54:45.274Z,17.9
2018-03-07T04:55:34.818Z,17.9
2018-03-07T04:56:24.920Z,17.9
2018-03-07T04:57:16.582Z,18
2018-03-07T04:58:06.623Z,17.9
2018-03-07T04:58:56.377Z,18
2018-03-07T04:59:46.157Z,17.9
2018-03-07T05:00:36.231Z,17.9
2018-03-07T05:01:26.909Z,17.9
2018-03-07T05:02:16.320Z,17.9
2018-03-07T05:03:06.967Z,17.9
2018-03-07T05:03:56.695Z,17.9
2018-03-07T05:04:47.051Z,17.9
2018-03-07T05:05:36.255Z,18
2018-03-07T05:06:26.616Z,17.9
2018-03-07T05:07:17.215Z,17.9
2018-03-07T05:08:07.048Z,17.9
2018-03-07T05:08:57.036Z,17.9
2018-03-07T05:09:47.142Z,17.9
2018-03-07T05:10:37.488Z,17.9
2018-03-07T05:11:27.236Z,17.9
2018-03-07T05:12:17.593Z,17.9
2018-03-07T05:13:06.770Z,17.9
2018-03-07T05:13:56.833Z,17.9
2018-03-07T05:14:47.473Z,17.9
2018-03-07T05:15:37.758Z,17.9
2018-03-07T05:16:27.845Z,17.9
2018-03-07T05:17:17.910Z,17.9
2018-03-07T05:18:07.494Z,17.9
2018-03-07T05:18:58.008Z,17.9
2018-03-07T05:19:48.053Z,17.9
2018-03-07T05:20:37.934Z,17.9
2018-03-07T05:21:28.239Z,17.9
2018-03-07T05:22:17.996Z,17.9
2018-03-07T05:23:08.325Z,17.9
2018-03-07T05:23:57.530Z,17.9
2018-03-07T05:24:48.189Z,17.9
2018-03-07T05:25:38.492Z,17.9
2018-03-07T05:26:27.419Z,17.9
2018-03-07T05:27:18.067Z,17.9
2018-03-07T05:28:08.123Z,17.9
2018-03-07T05:28:58.437Z,17.9
2018-03-07T05:29:48.514Z,17.9
2018-03-07T05:30:38.259Z,17.9
2018-03-07T05:31:28.637Z,17.9
2018-03-07T05:32:18.680Z,17.9
2018-03-07T05:33:08.977Z,17.9
2018-03-07T05:33:58.475Z,17.9
2018-03-07T05:34:49.124Z,17.9
2018-03-07T05:35:39.265Z,17.9
2018-03-07T05:36:29.224Z,17.9
2018-03-07T05:37:19.292Z,17.9
2018-03-07T05:38:09.368Z,17.9
2018-03-07T05:38:59.389Z,17.9
2018-03-07T05:39:49.186Z,17.9
2018-03-07T05:40:38.988Z,17.9
2018-03-07T05:41:29.283Z,17.9
2018-03-07T05:42:19.605Z,17.9
2018-03-07T05:43:09.343Z,17.9
2018-03-07T05:43:58.917Z,17.9
2018-03-07T05:44:48.947Z,17.9
2018-03-07T05:45:39.021Z,17.9
2018-03-07T05:46:29.893Z,17.9
2018-03-07T05:47:19.694Z,17.9
2018-03-07T05:48:09.471Z,17.9
2018-03-07T05:48:59.850Z,17.9
2018-03-07T05:49:49.589Z,17.9
2018-03-07T05:50:39.658Z,17.9
2018-03-07T05:51:29.996Z,17.9
2018-03-07T05:52:20.043Z,17.9
2018-03-07T05:53:09.860Z,17.9
2018-03-07T05:54:00.139Z,17.9
2018-03-07T05:54:49.933Z,17.9
2018-03-07T05:55:39.418Z,17.9
2018-03-07T05:56:30.055Z,17.9
2018-03-07T05:57:19.593Z,17.9
2018-03-07T05:58:10.685Z,17.9
2018-03-07T05:59:00.762Z,17.9
2018-03-07T05:59:50.275Z,17.9
2018-03-07T06:00:40.300Z,17.9
2018-03-07T06:01:30.464Z,17.9
2018-03-07T06:02:20.185Z,17.9
2018-03-07T06:03:11.068Z,17.9
2018-03-07T06:04:00.817Z,17.9
2018-03-07T06:04:50.336Z,16.4
2018-03-07T06:05:40.671Z,15.8
2018-03-07T06:06:30.422Z,15.3
2018-03-07T06:07:20.512Z,17.7
2018-03-07T06:08:10.830Z,19.5
2018-03-07T06:09:01.170Z,19.9
2018-03-07T06:09:51.205Z,19.3
2018-03-07T06:10:40.725Z,18.4
2018-03-07T06:11:31.063Z,17.9
2018-03-07T06:12:21.145Z,17.8
2018-03-07T06:13:10.609Z,17.9
2018-03-07T06:14:01.802Z,18.4
2018-03-07T06:14:51.274Z,18.8
2018-03-07T06:15:41.912Z,19
2018-03-07T06:16:31.683Z,19.1
2018-03-07T06:17:21.523Z,19.1
2018-03-07T06:18:12.055Z,19.1
2018-03-07T06:19:01.304Z,19.2
2018-03-07T06:19:51.898Z,19.3
2018-03-07T06:20:41.971Z,19.4
2018-03-07T06:21:31.314Z,19.6
2018-03-07T06:22:21.360Z,19.8
2018-03-07T06:23:11.992Z,19.9
2018-03-07T06:24:02.011Z,20.1
2018-03-07T06:24:51.478Z,20.2
2018-03-07T06:25:41.839Z,20.3
2018-03-07T06:26:32.139Z,20.4
2018-03-07T06:27:21.909Z,20.6
2018-03-07T06:28:11.979Z,20.8
2018-03-07T06:29:02.837Z,20.9
2018-03-07T06:29:51.855Z,21
2018-03-07T06:30:42.409Z,21.2
2018-03-07T06:31:32.511Z,21.3
2018-03-07T06:32:22.791Z,21.4
2018-03-07T06:33:13.118Z,21.6
2018-03-07T06:34:02.894Z,21.8
2018-03-07T06:34:52.658Z,21.9
2018-03-07T06:35:42.758Z,22.1
2018-03-07T06:36:32.841Z,22.2
2018-03-07T06:37:22.819Z,22.3
2018-03-07T06:38:12.595Z,22.5
2018-03-07T06:39:03.260Z,22.6
2018-03-07T06:39:51.388Z,22.8
2018-03-07T06:40:43.402Z,22.9
2018-03-07T06:41:32.608Z,23.1
2018-03-07T06:42:22.429Z,23.3
2018-03-07T06:43:12.335Z,23.4
2018-03-07T06:44:01.871Z,23.6
2018-03-07T06:44:52.850Z,23.7
2018-03-07T06:45:40.824Z,23.8
2018-03-07T06:46:32.271Z,24
2018-03-07T06:47:22.498Z,24.2
2018-03-07T06:48:12.828Z,24.3
2018-03-07T06:49:02.116Z,24.5
2018-03-07T06:49:52.560Z,24.6
2018-03-07T06:50:43.030Z,24.8
2018-03-07T06:51:32.782Z,24.9
2018-03-07T06:52:22.833Z,25.1
2018-03-07T06:53:14.550Z,25.3
2018-03-07T06:54:02.977Z,25.4
2018-03-07T06:54:53.537Z,25.6
2018-03-07T06:55:44.095Z,25.8
2018-03-07T06:56:32.425Z,25.9
2018-03-07T06:57:23.174Z,26.1
2018-03-07T06:58:14.016Z,26.3
2018-03-07T06:59:03.061Z,26.4
2018-03-07T06:59:54.940Z,26.6
2018-03-07T07:00:44.724Z,26.8
2018-03-07T07:01:34.792Z,26.9
2018-03-07T07:02:24.853Z,27.1
2018-03-07T07:03:15.185Z,27.3
2018-03-07T07:04:04.779Z,27.4
2018-03-07T07:04:54.434Z,27.6
2018-03-07T07:05:45.331Z,27.8
2018-03-07T07:06:35.427Z,27.9
2018-03-07T07:07:24.946Z,28.1
2018-03-07T07:08:15.001Z,28.3
2018-03-07T07:09:04.778Z,28.4
2018-03-07T07:09:54.819Z,28.6
2018-03-07T07:10:45.402Z,28.8
2018-03-07T07:11:35.697Z,28.9
2018-03-07T07:12:25.851Z,29.1
2018-03-07T07:13:15.334Z,29.3
2018-03-07T07:14:05.361Z,29.4
2018-03-07T07:14:54.118Z,29.6
2018-03-07T07:15:45.059Z,29.8
2018-03-07T07:16:34.232Z,29.9
2018-03-07T07:17:24.183Z,30.1
2018-03-07T07:18:14.835Z,30.3
2018-03-07T07:19:03.998Z,30.4
2018-03-07T07:19:54.959Z,30.6
2018-03-07T07:20:45.263Z,30.8
2018-03-07T07:21:35.957Z,30.9
2018-03-07T07:22:25.125Z,31.1
2018-03-07T07:23:15.563Z,31.3
2018-03-07T07:24:05.519Z,31.4
2018-03-07T07:24:55.121Z,31.6
2018-03-07T07:25:45.363Z,31.8
2018-03-07T07:26:36.529Z,32
2018-03-07T07:27:26.219Z,32.1
2018-03-07T07:28:16.662Z,32.3
2018-03-07T07:29:06.706Z,32.4
2018-03-07T07:29:56.493Z,32.6
2018-03-07T07:30:46.815Z,32.8
2018-03-07T07:31:36.853Z,33
2018-03-07T07:32:26.447Z,33.2
2018-03-07T07:33:15.655Z,33.3
2018-03-07T07:34:05.850Z,33.5
2018-03-07T07:34:56.103Z,33.6
2018-03-07T07:35:46.124Z,33.8
2018-03-07T07:36:36.482Z,34
2018-03-07T07:37:26.326Z,34.2
2018-03-07T07:38:16.845Z,34.3
2018-03-07T07:39:06.005Z,34.5
2018-03-07T07:39:56.455Z,34.6
2018-03-07T07:40:46.117Z,34.9
2018-03-07T07:41:37.419Z,35
2018-03-07T07:42:26.809Z,35.2
2018-03-07T07:43:18.284Z,35.3
2018-03-07T07:44:08.086Z,35.5
2018-03-07T07:44:57.807Z,35.7
2018-03-07T07:45:47.602Z,35.8
2018-03-07T07:46:37.662Z,36
2018-03-07T07:47:28.203Z,36.2
2018-03-07T07:48:18.320Z,36.3
2018-03-07T07:49:07.861Z,36.5
2018-03-07T07:49:58.149Z,36.5
2018-03-07T07:50:48.389Z,36.2
2018-03-07T07:51:37.991Z,36.2
2018-03-07T07:52:28.066Z,36.3
2018-03-07T07:53:18.420Z,36.4
2018-03-07T07:55:26.731Z,36.6
2018-03-07T07:56:27.333Z,36.9
2018-03-07T07:57:17.654Z,37.1
2018-03-07T07:58:07.711Z,37.3
2018-03-07T07:58:57.766Z,37.4
2018-03-07T07:59:48.401Z,37.6
2018-03-07T08:00:38.451Z,37.7
2018-03-07T08:01:27.226Z,37.8
2018-03-07T08:02:16.288Z,37.9
2018-03-07T08:03:08.118Z,38
2018-03-07T08:03:57.696Z,38.2
2018-03-07T08:05:10.932Z,38.6
2018-03-07T08:06:02.215Z,38.6
2018-03-07T08:06:52.412Z,38.8
2018-03-07T08:07:40.725Z,38.9
2018-03-07T08:08:44.367Z,39.2
2018-03-07T08:09:22.548Z,39.3
2018-03-07T08:10:11.617Z,39.4
2018-03-07T08:11:01.335Z,39.6
2018-03-07T08:13:33.230Z,40
2018-03-07T08:14:23.535Z,40.3
2018-03-07T08:15:12.840Z,40.4
2018-03-07T08:16:54.752Z,40.9
2018-03-07T08:17:44.260Z,40.9
2018-03-07T08:18:34.302Z,41
2018-03-07T08:19:24.956Z,41.2
2018-03-07T08:20:15.069Z,41.3
2018-03-07T08:21:04.194Z,41.5
2018-03-07T08:21:54.575Z,41.6
2018-03-07T08:22:45.181Z,41.8
2018-03-07T08:23:34.968Z,41.9
2018-03-07T08:24:25.300Z,42
2018-03-07T08:25:15.066Z,42.2
2018-03-07T08:26:05.409Z,42.3
2018-03-07T08:26:55.501Z,42.4
2018-03-07T08:27:45.676Z,42.6
2018-03-07T08:28:35.627Z,42.8
2018-03-07T08:29:25.672Z,42.9
2018-03-07T08:30:15.451Z,43
2018-03-07T08:31:05.797Z,43.2
2018-03-07T08:31:55.231Z,43.3
2018-03-07T08:32:45.342Z,43.5
2018-03-07T08:33:35.948Z,43.6
2018-03-07T08:34:25.807Z,43.8
2018-03-07T08:35:16.058Z,43.9
2018-03-07T08:36:05.867Z,44.1
2018-03-07T08:36:55.877Z,44.2
2018-03-07T08:37:45.967Z,44.3
2018-03-07T08:38:36.012Z,44.5
2018-03-07T08:39:26.069Z,44.6
2018-03-07T08:40:16.401Z,44.8
2018-03-07T08:41:05.907Z,44.9
2018-03-07T08:41:56.538Z,45
2018-03-07T08:42:46.296Z,45
2018-03-07T08:43:36.644Z,44.8
2018-03-07T08:44:26.225Z,44.6
2018-03-07T08:45:16.451Z,44.6
2018-03-07T08:46:07.221Z,44.6
2018-03-07T08:46:56.292Z,44.8
2018-03-07T08:47:46.676Z,44.9
2018-03-07T08:48:36.966Z,45.1
2018-03-07T08:49:27.018Z,45.3
2018-03-07T08:50:17.101Z,45.4
2018-03-07T08:51:06.864Z,45.6
2018-03-07T08:51:57.208Z,45.7
2018-03-07T08:52:46.686Z,45.8
2018-03-07T08:53:36.756Z,45.9
2018-03-07T08:54:26.348Z,46.1
2018-03-07T08:55:17.176Z,46.3
2018-03-07T08:56:07.230Z,46.4
2018-03-07T08:56:56.963Z,46.4
2018-03-07T08:57:47.593Z,46.3
2018-03-07T08:58:37.406Z,46.3
2018-03-07T08:59:25.418Z,46.4
2018-03-07T09:00:17.511Z,46.5
2018-03-07T09:01:06.990Z,46.7
2018-03-07T09:01:56.655Z,46.8
2018-03-07T09:02:46.540Z,46.9
2018-03-07T09:03:36.315Z,47.1
2018-03-07T09:04:27.420Z,47.2
2018-03-07T09:05:17.685Z,47.1
2018-03-07T09:06:07.070Z,47.1
2018-03-07T09:06:58.284Z,47.1
2018-03-07T09:07:47.459Z,47.4
2018-03-07T09:08:38.101Z,47.6
2018-03-07T09:09:28.119Z,47.8
2018-03-07T09:10:18.733Z,47.9
2018-03-07T09:11:08.530Z,48.1
2018-03-07T09:11:58.314Z,48.2
2018-03-07T09:12:48.106Z,48.3
2018-03-07T09:13:38.725Z,48.4
2018-03-07T09:14:28.491Z,48.6
2018-03-07T09:15:18.852Z,48.8
2018-03-07T09:16:08.072Z,48.9
2018-03-07T09:16:58.944Z,49
2018-03-07T09:17:49.011Z,49.1
2018-03-07T09:18:38.777Z,49.3
2018-03-07T09:19:27.675Z,49.4
2018-03-07T09:20:18.944Z,49.5
2018-03-07T09:21:09.302Z,49.6
2018-03-07T09:21:59.302Z,49.8
2018-03-07T09:22:49.383Z,49.9
2018-03-07T09:23:38.901Z,50
2018-03-07T09:24:29.284Z,50.1
2018-03-07T09:25:18.106Z,50.3
2018-03-07T09:26:09.059Z,50.3
2018-03-07T09:26:59.392Z,50.4
2018-03-07T09:27:49.451Z,50.6
2018-03-07T09:28:39.246Z,50.7
2018-03-07T09:29:29.047Z,50.6
2018-03-07T09:30:19.352Z,50
2018-03-07T09:31:09.361Z,49.9
2018-03-07T09:31:59.551Z,49.8
2018-03-07T09:32:50.099Z,49.9
2018-03-07T09:33:39.290Z,50.1
2018-03-07T09:34:29.740Z,50.2
2018-03-07T09:35:20.240Z,50.3
2018-03-07T09:36:09.261Z,50.4
2018-03-07T09:36:59.785Z,50.5
2018-03-07T09:37:50.411Z,50.7
2018-03-07T09:38:40.188Z,50.8
2018-03-07T09:39:30.245Z,50.9
2018-03-07T09:40:20.580Z,51.1
2018-03-07T09:41:10.088Z,51.2
2018-03-07T09:42:00.446Z,51.3
2018-03-07T09:42:50.754Z,51.4
2018-03-07T09:43:40.818Z,51.6
2018-03-07T09:44:30.633Z,51.6
2018-03-07T09:45:20.390Z,51.8
2018-03-07T09:46:10.930Z,51.9
2018-03-07T09:49:30.460Z,51.8
2018-03-07T09:50:20.307Z,51.7
2018-03-07T09:51:10.766Z,51.8
2018-03-07T09:51:59.453Z,52
2018-03-07T09:52:49.218Z,52.3
2018-03-07T09:53:39.694Z,52.4
2018-03-07T09:54:30.629Z,52.6
2018-03-07T09:55:20.007Z,52.8
2018-03-07T09:56:10.732Z,52.9
2018-03-07T09:56:59.855Z,52.9
2018-03-07T09:57:49.799Z,53.1
2018-03-07T09:58:41.216Z,53.2
2018-03-07T09:59:30.712Z,53.3
2018-03-07T10:00:19.882Z,53.5
2018-03-07T10:01:09.852Z,53.6
2018-03-07T10:02:01.024Z,53.6
2018-03-07T10:02:50.340Z,53.8
2018-03-07T10:03:40.669Z,53.8
2018-03-07T10:04:30.154Z,53.6
2018-03-07T10:05:21.307Z,53.6
2018-03-07T10:06:11.117Z,53.7
2018-03-07T10:07:01.885Z,53.8
2018-03-07T10:07:51.747Z,53.9
2018-03-07T10:08:41.512Z,53.9
2018-03-07T10:09:32.145Z,54.1
2018-03-07T10:10:21.682Z,54.2
2018-03-07T10:11:11.711Z,54.3
2018-03-07T10:12:02.568Z,54.4
2018-03-07T10:12:51.560Z,54.4
2018-03-07T10:13:42.415Z,54.6
2018-03-07T10:14:32.027Z,54.6
2018-03-07T10:15:22.346Z,54.8
2018-03-07T10:17:45.893Z,54.9
2018-03-07T10:18:47.131Z,55.3
2018-03-07T10:19:37.246Z,55.3
2018-03-07T10:20:27.258Z,55.4
2018-03-07T10:21:17.336Z,55.4
2018-03-07T10:22:07.858Z,55.6
2018-03-07T10:22:58.069Z,55.6
2018-03-07T10:23:48.258Z,55.8
2018-03-07T10:24:37.763Z,55.8
2018-03-07T10:25:28.104Z,55.9
2018-03-07T10:26:18.196Z,56
2018-03-07T10:27:08.235Z,56.1
2018-03-07T10:27:58.593Z,56.2
2018-03-07T10:28:48.128Z,56.3
2018-03-07T10:29:38.716Z,56.4
2018-03-07T10:30:27.725Z,56.4
2018-03-07T10:31:18.533Z,56.5
2018-03-07T10:32:08.573Z,56.6
2018-03-07T10:32:58.671Z,56.7
2018-03-07T10:33:48.501Z,56.8
2018-03-07T10:34:39.047Z,56.8
2018-03-07T10:35:28.342Z,56.9
2018-03-07T10:36:18.577Z,57.1
2018-03-07T10:37:08.652Z,57.1
2018-03-07T10:37:58.787Z,57.3
2018-03-07T10:38:49.062Z,57.3
2018-03-07T10:39:38.997Z,57.4
2018-03-07T10:40:29.487Z,57.5
2018-03-07T10:41:18.935Z,57.4
2018-03-07T10:42:09.567Z,57.6
2018-03-07T10:42:59.611Z,57.7
2018-03-07T10:43:48.805Z,57.8
2018-03-07T10:44:39.757Z,57.9
2018-03-07T10:45:29.792Z,58
2018-03-07T10:46:19.842Z,58.1
2018-03-07T10:47:09.886Z,58.1
2018-03-07T10:47:59.720Z,58.1
2018-03-07T10:48:50.035Z,58.3
2018-03-07T10:49:40.112Z,58.3
2018-03-07T10:50:29.315Z,58.4
2018-03-07T10:51:19.948Z,58.5
2018-03-07T10:52:58.693Z,58.7
2018-03-07T10:53:50.137Z,58.8
2018-03-07T10:54:39.283Z,58.8
2018-03-07T10:55:29.754Z,58.9
2018-03-07T10:56:19.031Z,59
2018-03-07T10:57:09.183Z,59
2018-03-07T10:57:59.634Z,59.1
2018-03-07T10:58:50.744Z,59.1
2018-03-07T10:59:40.773Z,59.3
2018-03-07T11:00:30.849Z,59.3
2018-03-07T11:01:20.627Z,59.4
2018-03-07T11:02:10.490Z,59.5
2018-03-07T11:03:00.532Z,59.6
2018-03-07T11:03:50.795Z,59.6
2018-03-07T11:04:40.876Z,59.7
2018-03-07T11:05:31.225Z,59.8
2018-03-07T11:06:20.998Z,59.9
2018-03-07T11:07:11.307Z,59.9
2018-03-07T11:08:01.395Z,59.8
2018-03-07T11:08:51.467Z,59.6
2018-03-07T11:09:40.625Z,59.4
2018-03-07T11:10:34.307Z,59.3
2018-03-07T11:11:21.297Z,59.2
2018-03-07T11:12:11.364Z,59.3
2018-03-07T11:13:01.170Z,59.4
2018-03-07T11:13:51.538Z,59.4
2018-03-07T11:14:41.540Z,59.2
2018-03-07T11:15:31.063Z,59
2018-03-07T11:16:21.683Z,58.8
2018-03-07T11:17:12.023Z,58.4
2018-03-07T11:18:01.497Z,58.2